Terminal Aerodrome Forecast
Issued by NWS

Home | Current Version | Previous Version | Graphics & Text | Print | Product List | Glossary On
Versions: 1 2 3 4 5 6 7 8 9 10 11 12 13 14 15 16 17 18 19 20 21 22 23 24 25 26 27 28
632
FTUS43 KBIS 121025 AAA
TAFDIK
TAF AMD
KDIK 121025Z 1210/1306 36008KT P6SM SCT015 OVC025
      TEMPO 1210/1214 BKN015 OVC025
     FM121400 04008KT P6SM OVC035
     FM121900 08007KT P6SM BKN040
     FM122300 11009KT P6SM BKN070
     FM130400 13012KT P6SM OVC015=

USA.gov is the U.S. government's official web portal to all federal, state and local government web resources and services.